createdAt,value
2023-04-16T00:02:15.898Z,94.00
2023-04-16T00:05:18.016Z,94.00
2023-04-16T00:08:20.157Z,94.00
2023-04-16T00:11:22.561Z,94.00
2023-04-16T00:14:24.628Z,94.10
2023-04-16T00:17:26.891Z,94.10
2023-04-16T00:20:28.927Z,94.10
2023-04-16T00:23:31.203Z,94.00
2023-04-16T00:26:33.408Z,93.80
2023-04-16T00:29:35.812Z,93.70
2023-04-16T00:32:38.955Z,93.70
2023-04-16T00:35:41.450Z,93.60
2023-04-16T00:38:43.528Z,93.60
2023-04-16T00:41:46.347Z,93.60
2023-04-16T00:44:49.411Z,93.70
2023-04-16T00:47:52.652Z,93.60
2023-04-16T00:50:55.678Z,93.80
2023-04-16T00:53:58.241Z,93.60
2023-04-16T00:57:00.333Z,93.50
2023-04-16T01:00:03.222Z,93.70
2023-04-16T01:03:05.912Z,93.80
2023-04-16T01:06:08.125Z,93.90
2023-04-16T01:09:13.540Z,94.00
2023-04-16T01:12:15.772Z,94.00
2023-04-16T01:15:17.861Z,94.10
2023-04-16T01:18:21.508Z,94.30
2023-04-16T01:21:23.613Z,94.40
2023-04-16T01:24:25.645Z,94.50
2023-04-16T01:27:27.656Z,94.40
2023-04-16T01:30:29.728Z,94.30
2023-04-16T01:33:31.859Z,94.30
2023-04-16T01:36:33.872Z,94.50
2023-04-16T01:39:35.914Z,94.50
2023-04-16T01:42:39.092Z,94.70
2023-04-16T01:45:41.367Z,94.80
2023-04-16T01:48:43.557Z,94.90
2023-04-16T01:51:45.763Z,94.90
2023-04-16T01:54:47.786Z,94.80
2023-04-16T01:57:49.909Z,94.80
2023-04-16T02:00:52.141Z,94.90
2023-04-16T02:03:54.460Z,94.90
2023-04-16T02:06:56.549Z,94.90
2023-04-16T02:09:58.663Z,95.00
2023-04-16T02:13:00.701Z,95.00
2023-04-16T02:16:02.883Z,94.80
2023-04-16T02:19:04.975Z,94.80
2023-04-16T02:22:07.304Z,94.80
2023-04-16T02:25:09.487Z,94.90
2023-04-16T02:28:14.226Z,94.70
2023-04-16T02:31:19.727Z,94.70
2023-04-16T02:34:21.897Z,94.90
2023-04-16T02:37:25.971Z,95.00
2023-04-16T02:40:28.392Z,95.20
2023-04-16T02:43:31.324Z,95.40
2023-04-16T02:46:33.777Z,95.40
2023-04-16T02:49:36.025Z,95.50
2023-04-16T02:52:38.133Z,95.60
2023-04-16T02:55:40.228Z,95.60
2023-04-16T02:58:42.301Z,95.70
2023-04-16T03:01:44.308Z,95.90
2023-04-16T03:04:46.799Z,96.00
2023-04-16T03:07:50.710Z,96.20
2023-04-16T03:10:52.876Z,96.20
2023-04-16T03:14:04.913Z,96.30
2023-04-16T03:17:07.217Z,96.30
2023-04-16T03:20:17.195Z,96.30
2023-04-16T03:23:19.356Z,96.40
2023-04-16T03:26:21.880Z,96.50
2023-04-16T03:29:23.845Z,96.40
2023-04-16T03:32:26.078Z,96.70
2023-04-16T03:35:28.325Z,96.90
2023-04-16T03:38:30.509Z,97.00
2023-04-16T03:41:34.717Z,97.30
2023-04-16T03:44:36.911Z,97.60
2023-04-16T03:47:39.005Z,98.20
2023-04-16T03:50:44.939Z,98.00
2023-04-16T03:53:46.942Z,98.40
2023-04-16T03:56:50.444Z,98.60
2023-04-16T03:59:52.621Z,98.90
2023-04-16T04:02:54.892Z,99.20
2023-04-16T04:05:57.077Z,99.20
2023-04-16T04:08:59.628Z,99.20
2023-04-16T04:12:02.197Z,99.10
2023-04-16T04:15:09.076Z,99.00
2023-04-16T04:18:17.769Z,99.00
2023-04-16T04:21:20.118Z,98.80
2023-04-16T04:24:22.660Z,98.40
2023-04-16T04:27:24.676Z,98.20
2023-04-16T04:30:26.829Z,97.90
2023-04-16T04:33:29.267Z,98.00
2023-04-16T04:36:31.293Z,97.90
2023-04-16T04:39:33.280Z,98.00
2023-04-16T04:42:35.302Z,97.90
2023-04-16T04:45:37.681Z,97.90
2023-04-16T04:48:39.742Z,97.90
2023-04-16T04:51:41.997Z,97.80
2023-04-16T04:54:43.977Z,97.80
2023-04-16T04:57:46.090Z,98.20
2023-04-16T05:00:48.235Z,97.80
2023-04-16T05:03:52.235Z,97.80
2023-04-16T05:06:54.259Z,97.80
2023-04-16T05:09:56.584Z,97.80
2023-04-16T05:12:58.842Z,97.70
2023-04-16T05:16:00.852Z,97.60
2023-04-16T05:19:02.891Z,97.50
2023-04-16T05:22:05.063Z,97.50
2023-04-16T05:25:07.411Z,97.40
2023-04-16T05:28:11.088Z,97.40
2023-04-16T05:31:13.253Z,97.30
2023-04-16T05:34:15.242Z,97.10
2023-04-16T05:37:18.173Z,97.00
2023-04-16T05:40:20.306Z,96.70
2023-04-16T05:43:22.324Z,96.50
2023-04-16T05:46:24.408Z,96.30
2023-04-16T05:49:26.468Z,96.20
2023-04-16T05:52:28.450Z,96.10
2023-04-16T05:55:30.539Z,96.00
2023-04-16T05:58:32.528Z,96.00
2023-04-16T06:01:34.620Z,96.00
2023-04-16T06:04:37.317Z,96.00
2023-04-16T06:07:39.433Z,95.90
2023-04-16T06:10:41.483Z,95.80
2023-04-16T06:13:43.569Z,95.60
2023-04-16T06:16:46.967Z,95.50
2023-04-16T06:19:49.050Z,95.60
2023-04-16T06:22:52.044Z,94.70
2023-04-16T06:25:54.608Z,94.40
2023-04-16T06:28:56.704Z,93.70
2023-04-16T06:31:58.839Z,93.00
2023-04-16T06:35:01.138Z,92.50
2023-04-16T06:38:03.178Z,91.70
2023-04-16T06:41:05.366Z,90.70
2023-04-16T06:44:07.431Z,89.90
2023-04-16T06:47:09.522Z,88.30
2023-04-16T06:50:11.862Z,86.80
2023-04-16T06:53:13.912Z,85.90
2023-04-16T06:56:16.216Z,85.10
2023-04-16T06:59:18.827Z,84.50
2023-04-16T07:02:20.916Z,82.80
2023-04-16T07:05:23.065Z,80.80
2023-04-16T07:08:28.051Z,78.10
2023-04-16T07:11:30.811Z,76.80
2023-04-16T07:14:32.858Z,76.30
2023-04-16T07:17:34.873Z,76.40
2023-04-16T07:20:37.089Z,75.40
2023-04-16T07:23:39.180Z,75.40
2023-04-16T07:26:41.640Z,74.20
2023-04-16T07:29:45.772Z,73.30
2023-04-16T07:32:47.797Z,74.70
2023-04-16T07:35:49.862Z,73.30
2023-04-16T07:38:51.862Z,72.00
2023-04-16T07:41:53.919Z,69.70
2023-04-16T07:44:55.951Z,70.10
2023-04-16T07:47:57.993Z,69.10
2023-04-16T07:51:00.141Z,67.80
2023-04-16T07:54:02.286Z,68.20
2023-04-16T07:57:04.313Z,69.00
2023-04-16T08:00:07.208Z,67.60
2023-04-16T08:03:09.573Z,68.40
2023-04-16T08:06:11.777Z,66.30
2023-04-16T08:09:13.785Z,64.90
2023-04-16T08:12:17.343Z,65.40
2023-04-16T08:15:19.761Z,65.10
2023-04-16T08:18:21.816Z,66.60
2023-04-16T08:21:23.887Z,62.10
2023-04-16T08:24:26.400Z,62.00
2023-04-16T08:27:28.380Z,61.90
2023-04-16T08:30:30.732Z,63.10
2023-04-16T08:33:32.973Z,63.20
2023-04-16T08:36:35.061Z,61.00
2023-04-16T08:39:41.159Z,62.20
2023-04-16T08:42:52.646Z,61.10
2023-04-16T08:45:57.069Z,58.10
2023-04-16T08:49:00.122Z,57.80
2023-04-16T08:52:06.244Z,56.10
2023-04-16T08:55:14.627Z,56.20
2023-04-16T08:58:20.196Z,55.80
2023-04-16T09:01:29.621Z,56.50
2023-04-16T09:04:32.640Z,55.20
2023-04-16T09:07:35.621Z,57.30
2023-04-16T09:10:41.777Z,55.80
2023-04-16T09:13:44.579Z,53.60
2023-04-16T09:16:53.619Z,53.80
2023-04-16T09:19:55.954Z,54.20
2023-04-16T09:22:57.915Z,51.70
2023-04-16T09:26:01.083Z,51.80
2023-04-16T09:29:03.382Z,52.00
2023-04-16T09:32:07.600Z,50.60
2023-04-16T09:35:09.701Z,52.90
2023-04-16T09:38:11.793Z,51.30
2023-04-16T09:41:16.439Z,48.30
2023-04-16T09:44:18.715Z,47.60
2023-04-16T09:47:21.485Z,48.80
2023-04-16T09:50:26.889Z,48.10
2023-04-16T09:53:32.540Z,48.30
2023-04-16T09:56:39.571Z,48.50
2023-04-16T09:59:41.665Z,47.90
2023-04-16T10:02:43.760Z,46.20
2023-04-16T10:05:46.783Z,44.60
2023-04-16T10:08:50.172Z,42.30
2023-04-16T10:11:52.670Z,43.70
2023-04-16T10:14:54.786Z,43.10
2023-04-16T10:17:58.168Z,42.80
2023-04-16T10:21:00.728Z,44.30
2023-04-16T10:24:03.529Z,43.20
2023-04-16T10:27:05.582Z,43.10
2023-04-16T10:30:08.906Z,42.00
2023-04-16T10:33:11.758Z,40.90
2023-04-16T10:36:23.619Z,41.50
2023-04-16T10:39:28.253Z,41.40
2023-04-16T10:42:31.948Z,43.00
2023-04-16T10:45:38.472Z,43.00
2023-04-16T10:48:50.365Z,44.10
2023-04-16T10:52:00.769Z,42.70
2023-04-16T10:55:02.814Z,42.80
2023-04-16T10:58:28.083Z,41.40
2023-04-16T11:01:34.641Z,43.10
2023-04-16T11:04:38.909Z,42.20
2023-04-16T11:07:49.740Z,41.30
2023-04-16T11:10:52.567Z,41.60
2023-04-16T11:13:57.307Z,42.70
2023-04-16T11:17:02.500Z,41.10
2023-04-16T11:20:19.488Z,42.30
2023-04-16T11:23:22.770Z,40.40
2023-04-16T11:26:29.559Z,41.40
2023-04-16T11:29:31.648Z,42.90
2023-04-16T11:32:35.314Z,42.30
2023-04-16T11:35:38.129Z,42.60
2023-04-16T11:38:43.163Z,44.20
2023-04-16T11:41:49.320Z,46.90
2023-04-16T11:44:56.213Z,47.90
2023-04-16T11:47:58.320Z,49.10
2023-04-16T11:51:00.632Z,49.80
2023-04-16T11:54:02.743Z,52.50
2023-04-16T11:57:05.133Z,51.70
2023-04-16T12:00:13.131Z,52.20
2023-04-16T12:03:15.670Z,52.60
2023-04-16T12:06:17.998Z,52.20
2023-04-16T12:09:27.444Z,52.20
2023-04-16T12:12:32.137Z,52.70
2023-04-16T12:15:54.186Z,53.30
2023-04-16T12:19:04.229Z,54.00
2023-04-16T12:22:06.663Z,53.40
2023-04-16T12:25:12.609Z,54.90
2023-04-16T12:28:16.586Z,55.10
2023-04-16T12:31:20.543Z,53.90
2023-04-16T12:34:29.120Z,53.80
2023-04-16T12:37:44.815Z,54.30
2023-04-16T12:40:46.851Z,53.40
2023-04-16T12:43:48.932Z,53.30
2023-04-16T12:46:51.198Z,52.20
2023-04-16T12:49:53.356Z,51.80
2023-04-16T12:52:58.672Z,51.50
2023-04-16T12:56:00.754Z,51.50
2023-04-16T12:59:03.441Z,50.80
2023-04-16T13:02:05.788Z,50.00
2023-04-16T13:05:09.024Z,49.40
2023-04-16T13:08:11.198Z,48.60
2023-04-16T13:11:13.723Z,47.60
2023-04-16T13:14:15.895Z,46.60
2023-04-16T13:17:17.858Z,46.40
2023-04-16T13:20:20.249Z,46.50
2023-04-16T13:23:22.840Z,46.80
2023-04-16T13:26:24.953Z,46.30
2023-04-16T13:29:27.188Z,46.10
2023-04-16T13:32:29.322Z,46.20
2023-04-16T13:35:31.515Z,46.30
2023-04-16T13:38:33.576Z,44.70
2023-04-16T13:41:35.579Z,44.60
2023-04-16T13:44:37.636Z,42.80
2023-04-16T13:47:43.867Z,43.70
2023-04-16T13:50:46.068Z,42.70
2023-04-16T13:53:48.320Z,42.60
2023-04-16T13:56:51.336Z,41.40
2023-04-16T13:59:53.420Z,42.90
2023-04-16T14:02:55.721Z,42.30
2023-04-16T14:05:57.913Z,42.40
2023-04-16T14:09:00.019Z,42.80
2023-04-16T14:12:02.099Z,42.10
2023-04-16T14:15:09.662Z,42.60
2023-04-16T14:18:11.732Z,42.40
2023-04-16T14:21:13.957Z,42.00
2023-04-16T14:24:16.143Z,43.20
2023-04-16T14:27:18.219Z,43.70
2023-04-16T14:30:20.337Z,43.70
2023-04-16T14:33:22.331Z,44.40
2023-04-16T14:36:24.388Z,43.50
2023-04-16T14:39:27.253Z,43.60
2023-04-16T14:42:29.333Z,43.90
2023-04-16T14:45:32.508Z,44.00
2023-04-16T14:48:34.582Z,43.50
2023-04-16T14:51:37.532Z,43.60
2023-04-16T14:54:44.605Z,42.60
2023-04-16T14:57:47.474Z,43.10
2023-04-16T15:00:49.680Z,41.70
2023-04-16T15:03:52.122Z,42.50
2023-04-16T15:06:55.649Z,42.60
2023-04-16T15:09:57.888Z,42.10
2023-04-16T15:12:59.883Z,41.10
2023-04-16T15:16:02.182Z,40.10
2023-04-16T15:19:05.101Z,41.30
2023-04-16T15:22:07.510Z,40.00
2023-04-16T15:25:09.817Z,39.50
2023-04-16T15:28:11.881Z,39.30
2023-04-16T15:31:14.038Z,39.70
2023-04-16T15:34:16.229Z,40.00
2023-04-16T15:37:18.388Z,39.50
2023-04-16T15:40:21.187Z,39.40
2023-04-16T15:43:23.296Z,38.30
2023-04-16T15:46:25.829Z,37.40
2023-04-16T15:49:27.901Z,38.00
2023-04-16T15:52:30.190Z,36.60
2023-04-16T15:55:32.340Z,37.50
2023-04-16T15:58:34.413Z,38.30
2023-04-16T16:01:36.550Z,38.70
2023-04-16T16:04:38.817Z,38.00
2023-04-16T16:07:41.897Z,38.30
2023-04-16T16:10:44.039Z,38.30
2023-04-16T16:13:46.135Z,38.70
2023-04-16T16:16:48.372Z,37.90
2023-04-16T16:19:52.181Z,38.30
2023-04-16T16:22:54.219Z,37.10
2023-04-16T16:25:56.934Z,38.10
2023-04-16T16:28:59.910Z,37.10
2023-04-16T16:32:01.967Z,37.30
2023-04-16T16:35:04.652Z,36.30
2023-04-16T16:38:08.576Z,36.10
2023-04-16T16:41:11.494Z,35.60
2023-04-16T16:44:13.542Z,35.80
2023-04-16T16:47:15.703Z,37.80
2023-04-16T16:50:18.052Z,37.10
2023-04-16T16:53:20.123Z,37.40
2023-04-16T16:56:23.036Z,35.90
2023-04-16T16:59:25.189Z,34.80
2023-04-16T17:02:27.474Z,35.70
2023-04-16T17:05:29.569Z,34.10
2023-04-16T17:08:31.605Z,34.10
2023-04-16T17:11:33.642Z,35.00
2023-04-16T17:14:35.802Z,33.70
2023-04-16T17:17:37.840Z,34.10
2023-04-16T17:20:43.003Z,33.90
2023-04-16T17:23:45.817Z,33.90
2023-04-16T17:26:48.644Z,34.10
2023-04-16T17:29:51.201Z,46.20
2023-04-16T17:32:54.283Z,48.40
2023-04-16T17:35:56.342Z,50.90
2023-04-16T17:38:58.731Z,52.40
2023-04-16T17:42:04.681Z,53.50
2023-04-16T17:45:08.298Z,53.80
2023-04-16T17:48:11.117Z,54.30
2023-04-16T17:51:15.560Z,54.10
2023-04-16T17:54:17.607Z,53.50
2023-04-16T17:57:19.623Z,53.10
2023-04-16T18:00:22.107Z,52.70
2023-04-16T18:03:24.151Z,52.50
2023-04-16T18:06:27.742Z,52.70
2023-04-16T18:09:31.532Z,53.30
2023-04-16T18:12:33.812Z,53.90
2023-04-16T18:15:38.759Z,54.30
2023-04-16T18:18:41.136Z,55.00
2023-04-16T18:21:43.482Z,55.60
2023-04-16T18:24:45.677Z,55.70
2023-04-16T18:27:47.919Z,56.10
2023-04-16T18:30:51.127Z,56.60
2023-04-16T18:33:57.860Z,57.10
2023-04-16T18:37:00.877Z,57.30
2023-04-16T18:40:05.775Z,57.00
2023-04-16T18:43:07.853Z,56.60
2023-04-16T18:46:09.878Z,56.20
2023-04-16T18:49:13.081Z,56.50
2023-04-16T18:52:15.586Z,56.30
2023-04-16T18:55:18.349Z,55.50
2023-04-16T18:58:20.595Z,55.50
2023-04-16T19:01:22.817Z,55.50
2023-04-16T19:04:25.203Z,55.60
2023-04-16T19:07:27.313Z,55.30
2023-04-16T19:10:29.727Z,54.70
2023-04-16T19:13:32.523Z,54.70
2023-04-16T19:16:35.335Z,54.80
2023-04-16T19:19:37.503Z,55.10
2023-04-16T19:22:39.507Z,55.50
2023-04-16T19:25:41.654Z,56.10
2023-04-16T19:28:43.794Z,56.80
2023-04-16T19:31:47.236Z,57.50
2023-04-16T19:34:49.340Z,57.90
2023-04-16T19:37:51.698Z,58.30
2023-04-16T19:40:53.816Z,59.00
2023-04-16T19:43:56.105Z,59.10
2023-04-16T19:46:58.799Z,59.70
2023-04-16T19:50:01.080Z,60.20
2023-04-16T19:53:03.261Z,60.60
2023-04-16T19:56:05.768Z,60.80
2023-04-16T19:59:07.804Z,61.00
2023-04-16T20:02:09.814Z,61.40
2023-04-16T20:05:11.861Z,61.60
2023-04-16T20:08:13.837Z,61.80
2023-04-16T20:11:15.877Z,62.10
2023-04-16T20:14:18.044Z,62.10
2023-04-16T20:17:20.151Z,62.20
2023-04-16T20:20:23.796Z,62.10
2023-04-16T20:23:25.960Z,62.40
2023-04-16T20:26:33.720Z,62.50
2023-04-16T20:29:35.868Z,62.60
2023-04-16T20:32:45.395Z,62.70
2023-04-16T20:35:47.622Z,62.80
2023-04-16T20:38:51.464Z,63.00
2023-04-16T20:41:57.411Z,63.00
2023-04-16T20:45:00.782Z,62.80
2023-04-16T20:48:02.805Z,63.00
2023-04-16T20:51:06.154Z,63.10
2023-04-16T20:54:10.197Z,62.80
2023-04-16T20:57:12.159Z,63.10
2023-04-16T21:00:15.534Z,63.00
2023-04-16T21:03:18.288Z,63.50
2023-04-16T21:06:22.567Z,63.50
2023-04-16T21:09:24.485Z,63.70
2023-04-16T21:12:26.539Z,63.70
2023-04-16T21:15:28.624Z,63.90
2023-04-16T21:18:30.887Z,64.00
2023-04-16T21:21:33.759Z,64.00
2023-04-16T21:24:35.989Z,64.00
2023-04-16T21:27:38.003Z,64.10
2023-04-16T21:30:40.063Z,64.10
2023-04-16T21:33:42.248Z,63.80
2023-04-16T21:36:44.292Z,64.00
2023-04-16T21:39:46.314Z,63.70
2023-04-16T21:42:48.368Z,64.00
2023-04-16T21:45:53.544Z,63.70
2023-04-16T21:48:55.530Z,64.00
2023-04-16T21:51:59.338Z,63.90
2023-04-16T21:55:01.428Z,64.00
2023-04-16T21:58:03.912Z,64.20
2023-04-16T22:01:07.730Z,64.10
2023-04-16T22:04:12.303Z,63.80
2023-04-16T22:07:16.977Z,64.20
2023-04-16T22:10:19.378Z,64.10
2023-04-16T22:13:22.845Z,64.60
2023-04-16T22:16:25.846Z,64.30
2023-04-16T22:19:28.365Z,64.60
2023-04-16T22:22:30.532Z,64.30
2023-04-16T22:25:32.543Z,64.50
2023-04-16T22:28:34.496Z,64.50
2023-04-16T22:31:36.498Z,64.60
2023-04-16T22:34:38.695Z,64.50
2023-04-16T22:37:40.905Z,64.60
2023-04-16T22:40:45.233Z,64.60
2023-04-16T22:43:48.459Z,64.60
2023-04-16T22:46:51.820Z,64.70
2023-04-16T22:49:54.077Z,65.00
2023-04-16T22:52:56.029Z,64.90
2023-04-16T22:55:57.989Z,65.10
2023-04-16T22:59:00.006Z,65.10
2023-04-16T23:02:02.182Z,65.30
2023-04-16T23:05:05.021Z,65.30
2023-04-16T23:08:07.076Z,66.10
2023-04-16T23:11:09.027Z,65.60
2023-04-16T23:14:11.198Z,65.80
2023-04-16T23:17:13.925Z,65.70
2023-04-16T23:20:16.120Z,65.70
2023-04-16T23:23:18.199Z,65.80
2023-04-16T23:26:20.294Z,65.90
2023-04-16T23:29:22.384Z,65.70
2023-04-16T23:32:24.610Z,66.40
2023-04-16T23:35:26.727Z,66.10
2023-04-16T23:38:28.860Z,66.20
2023-04-16T23:41:30.873Z,66.50
2023-04-16T23:44:33.848Z,66.70
2023-04-16T23:47:35.972Z,66.70
2023-04-16T23:50:38.071Z,66.70
2023-04-16T23:53:44.458Z,67.00
2023-04-16T23:56:46.648Z,67.30
2023-04-16T23:59:48.596Z,67.10
